CST,Max TemperatureF,Mean TemperatureF,Min TemperatureF,Max Dew PointF,MeanDew PointF,Min DewpointF,Max Humidity, Mean Humidity, Min Humidity, Max Sea Level PressureIn, Mean Sea Level PressureIn, Min Sea Level PressureIn, Max VisibilityMiles, Mean VisibilityMiles, Min VisibilityMiles, Max Wind SpeedMPH, Mean Wind SpeedMPH, Max Gust SpeedMPH,PrecipitationIn, CloudCover, Events, WindDirDegrees
2013-2-1,28,19,10,13,4,-2,61,53,37,30.54,30.41,30.27,10,10,10,23,11,26,0.00,3,,235
2013-2-2,42,35,28,30,23,10,100,68,43,30.24,30.12,30.07,10,7,1,22,8,30,0.06,6,Snow,271
2013-2-3,33,28,24,30,23,14,100,80,48,30.21,30.09,30.03,10,6,0,24,5,33,0.20,4,Fog-Snow,253
2013-2-4,59,42,25,36,27,17,80,64,41,30.01,29.90,29.78,10,10,10,18,8,,0.00,3,,340
2013-2-5,57,42,28,34,28,24,88,69,40,30.15,29.99,29.91,10,9,5,13,5,,0.00,2,,276
2013-2-6,51,38,26,32,29,23,92,70,48,30.27,30.17,30.07,10,9,5,13,4,,0.00,0,,135
2013-2-7,55,45,35,46,38,29,93,79,57,30.06,29.96,29.86,10,9,5,20,5,26,0.07,6,Rain,299
2013-2-8,39,34,30,36,29,24,89,78,68,30.39,30.27,30.05,10,8,4,21,14,28,0.00,8,,357
2013-2-9,42,36,30,34,27,24,86,72,60,30.39,30.25,30.06,10,10,5,15,8,16,0.13,6,Rain,140
2013-2-10,55,46,37,52,41,29,94,81,38,30.03,29.75,29.61,10,8,2,21,11,39,0.68,6,Rain,164
2013-2-11,50,40,30,28,26,22,85,54,36,30.17,30.03,29.83,10,10,10,18,13,31,0.00,0,,268
2013-2-12,45,36,26,32,27,23,92,71,49,30.19,30.09,29.96,10,10,9,6,1,,0.00,1,,13
2013-2-13,53,45,37,31,29,25,76,58,34,29.95,29.88,29.81,10,10,10,14,3,20,0.00,2,,252
2013-2-14,55,46,37,34,31,27,70,56,40,30.07,29.93,29.83,10,10,10,15,7,,0.00,1,,277
2013-2-15,42,36,28,27,19,13,75,54,36,30.29,30.22,30.08,10,10,10,17,11,29,0.00,3,,322
2013-2-16,36,30,21,16,12,8,78,54,31,30.29,30.24,30.19,10,10,10,14,9,18,0.00,0,,316
2013-2-17,48,34,19,29,21,16,85,61,34,30.22,30.12,29.94,10,10,10,17,5,23,0.00,3,,136
2013-2-18,55,46,35,47,38,24,89,74,62,29.92,29.76,29.57,10,10,7,31,13,44,0.07,6,Rain,192
2013-2-19,35,30,25,23,15,9,65,54,42,30.32,30.14,29.93,10,10,10,24,16,31,0.00,1,,293
2013-2-20,26,22,18,13,10,7,74,59,51,30.43,30.36,30.32,10,10,10,15,9,21,0.00,1,,12
2013-2-21,32,26,19,30,22,13,93,82,66,30.36,30.06,29.84,10,5,0,28,11,36,0.31,8,Fog-Rain-Snow,87
2013-2-22,36,30,25,32,27,17,96,78,61,30.10,29.94,29.82,10,8,2,14,4,20,0.01,6,Snow,245
2013-2-23,37,27,17,21,18,13,85,70,48,30.09,30.05,30.01,10,9,5,8,2,,0.00,0,,278
2013-2-24,44,30,17,26,22,14,89,70,47,30.15,30.10,30.05,10,8,3,9,2,,0.00,0,,112
2013-2-25,46,37,28,32,29,24,86,70,54,30.08,29.92,29.62,10,9,5,20,8,25,0.24,3,Rain,60
2013-2-26,45,40,35,41,36,30,93,88,81,29.68,29.46,29.36,10,6,2,17,12,26,0.63,8,Rain,1
2013-2-27,36,34,32,31,29,26,92,84,75,29.91,29.81,29.68,10,5,1,16,12,22,0.02,8,Snow,271
2013-2-28,35,34,32,29,28,26,88,80,72,30.12,30.04,29.91,10,8,5,15,11,22,0.00,8,Snow,300